Time;durP1;ratioP1;P1;durP2;ratioP2;P2;SDS_P1;SDS_P2;PMS_P1;PMS_P2;Temp;Humidity;BMP_temperature;BMP_pressure;BME280_temperature;BME280_humidity;BME280_pressure;Samples;Min_cycle;Max_cycle;Signal;HPM_P1;HPM_P2
2021/07/30 00:00:58;;;;;;;17.73;4.90;;;;;;;29.38;39.84;100314.84;5030520;28;20041;-69
2021/07/30 00:03:26;;;;;;;14.32;5.43;;;;;;;29.37;40.05;100307.66;5030646;28;20095;-69
2021/07/30 00:05:54;;;;;;;14.18;5.10;;;;;;;29.37;40.13;100307.66;5030270;28;20037;-68
2021/07/30 00:08:23;;;;;;;13.43;4.50;;;;;;;29.36;39.95;100305.91;5030780;28;20037;-69
2021/07/30 00:10:55;;;;;;;16.20;4.95;;;;;;;29.37;40.21;100307.66;5030813;28;20045;-69
2021/07/30 00:13:23;;;;;;;13.68;4.22;;;;;;;29.41;39.70;100302.84;5026514;28;20084;-68
2021/07/30 00:15:50;;;;;;;13.95;3.60;;;;;;;29.41;39.98;100295.56;5011041;28;20042;-69
2021/07/30 00:18:17;;;;;;;11.55;4.15;;;;;;;29.43;39.73;100307.22;5010584;28;20058;-69
2021/07/30 00:20:45;;;;;;;13.48;3.95;;;;;;;29.39;40.21;100299.38;5011317;28;20061;-69
2021/07/30 00:23:12;;;;;;;12.60;4.05;;;;;;;29.36;40.06;100299.59;5010365;28;20058;-69
2021/07/30 00:25:41;;;;;;;12.43;4.72;;;;;;;29.35;40.30;100298.72;5010306;28;20041;-69
2021/07/30 00:28:08;;;;;;;17.38;4.72;;;;;;;29.31;40.70;100287.16;5021064;28;20041;-69
2021/07/30 00:30:35;;;;;;;15.90;4.85;;;;;;;29.27;40.91;100291.09;5030326;28;20042;-69
2021/07/30 00:33:02;;;;;;;13.40;4.53;;;;;;;29.26;40.92;100297.50;5012272;28;20038;-69
2021/07/30 00:35:30;;;;;;;14.15;4.20;;;;;;;29.21;40.90;100294.19;5013863;28;20049;-69
2021/07/30 00:37:57;;;;;;;14.90;4.57;;;;;;;29.21;40.69;100291.47;5014191;28;20034;-69
2021/07/30 00:40:25;;;;;;;13.82;4.40;;;;;;;29.25;40.40;100293.03;5013602;28;20439;-68
2021/07/30 00:42:55;;;;;;;14.05;4.13;;;;;;;29.28;40.21;100292.78;5025008;28;20048;-67
2021/07/30 00:45:22;;;;;;;16.02;4.75;;;;;;;29.24;40.45;100288.56;5033598;28;20037;-67
2021/07/30 00:47:50;;;;;;;13.45;3.90;;;;;;;29.22;40.90;100281.47;5034076;28;20046;-69
2021/07/30 00:50:19;;;;;;;12.75;4.95;;;;;;;29.17;40.79;100275.50;5016017;28;20058;-69
2021/07/30 00:52:47;;;;;;;14.50;4.38;;;;;;;29.14;41.08;100271.16;5023127;28;20552;-70
2021/07/30 00:55:14;;;;;;;10.93;4.35;;;;;;;29.10;41.02;100274.16;5032825;28;20037;-69
2021/07/30 00:57:41;;;;;;;12.00;3.38;;;;;;;29.10;41.30;100263.28;5033683;28;20049;-69
2021/07/30 01:00:12;;;;;;;11.70;3.90;;;;;;;29.14;41.13;100278.44;5032370;28;20033;-70
2021/07/30 01:02:39;;;;;;;13.20;3.67;;;;;;;29.15;41.01;100281.03;5027963;28;20050;-69
2021/07/30 01:05:08;;;;;;;17.02;4.22;;;;;;;29.15;41.06;100283.75;5022086;28;20041;-70
2021/07/30 01:07:35;;;;;;;13.52;4.65;;;;;;;29.17;40.77;100292.69;5032156;28;20045;-70
2021/07/30 01:10:03;;;;;;;12.90;3.80;;;;;;;29.11;41.47;100278.63;5032626;28;20038;-70
2021/07/30 01:12:30;;;;;;;13.93;3.95;;;;;;;29.13;41.26;100287.56;5032909;28;20056;-70
2021/07/30 01:14:57;;;;;;;12.88;4.40;;;;;;;29.15;40.97;100277.44;5031211;28;20034;-70
2021/07/30 01:17:26;;;;;;;16.83;4.10;;;;;;;29.11;41.21;100281.34;5033581;28;20502;-68
2021/07/30 01:19:54;;;;;;;13.32;4.38;;;;;;;29.04;41.26;100293.63;5030879;28;20049;-69
2021/07/30 01:22:25;;;;;;;19.35;5.32;;;;;;;29.01;41.64;100286.56;5013709;28;20037;-69
2021/07/30 01:24:55;;;;;;;14.00;4.57;;;;;;;28.98;41.93;100280.44;5012642;28;20033;-68
2021/07/30 01:27:23;;;;;;;15.27;4.15;;;;;;;28.95;41.67;100284.22;5013275;28;20045;-65
2021/07/30 01:29:51;;;;;;;13.25;4.28;;;;;;;28.92;41.83;100290.78;5015130;28;20037;-70
2021/07/30 01:32:19;;;;;;;10.82;4.30;;;;;;;28.95;41.71;100291.56;5013272;28;20046;-70
2021/07/30 01:34:47;;;;;;;16.02;4.47;;;;;;;28.97;41.89;100293.16;5032251;28;20049;-70
2021/07/30 01:37:14;;;;;;;16.35;4.10;;;;;;;28.92;42.06;100296.22;5030180;28;20041;-69
2021/07/30 01:39:42;;;;;;;12.93;3.83;;;;;;;28.88;42.54;100277.50;5013223;28;20042;-69
2021/07/30 01:42:11;;;;;;;14.18;4.43;;;;;;;28.91;42.17;100280.88;5013396;28;20442;-69
2021/07/30 01:44:38;;;;;;;17.45;5.22;;;;;;;28.89;42.67;100282.81;5012435;28;20042;-69
2021/07/30 01:47:07;;;;;;;15.57;4.15;;;;;;;28.88;42.71;100272.06;5030752;28;20045;-69
2021/07/30 01:49:35;;;;;;;13.57;3.95;;;;;;;28.84;42.49;100278.66;5032509;28;20038;-70
2021/07/30 01:52:02;;;;;;;13.80;4.93;;;;;;;28.85;42.52;100269.53;5032559;28;20048;-69
2021/07/30 01:54:29;;;;;;;15.80;4.32;;;;;;;28.81;42.51;100278.91;5032517;28;20483;-68
2021/07/30 01:56:56;;;;;;;15.85;4.28;;;;;;;28.78;42.56;100282.69;5012261;28;20049;-69
2021/07/30 01:59:25;;;;;;;15.00;4.93;;;;;;;28.71;42.91;100284.03;5012607;28;20045;-69
2021/07/30 02:01:53;;;;;;;18.80;4.15;;;;;;;28.73;43.05;100273.06;5012759;28;20069;-67
2021/07/30 02:04:20;;;;;;;17.27;4.93;;;;;;;28.69;42.98;100283.25;5012650;28;20038;-69
2021/07/30 02:06:47;;;;;;;14.95;4.65;;;;;;;28.65;43.10;100281.72;5013818;28;20420;-69
2021/07/30 02:09:15;;;;;;;15.05;4.85;;;;;;;28.62;43.22;100271.03;5026628;28;20053;-70
2021/07/30 02:11:43;;;;;;;15.98;5.03;;;;;;;28.64;43.63;100287.25;5020481;28;20507;-69
2021/07/30 02:14:15;;;;;;;19.83;4.38;;;;;;;28.61;43.56;100273.88;5015037;28;20046;-69
2021/07/30 02:16:45;;;;;;;17.23;4.90;;;;;;;28.57;43.67;100278.63;5012348;28;20057;-70
2021/07/30 02:19:12;;;;;;;11.13;4.35;;;;;;;28.60;43.47;100286.59;5012958;28;20049;-70
2021/07/30 02:21:40;;;;;;;16.67;5.03;;;;;;;28.60;43.43;100272.16;5012263;28;20416;-69
2021/07/30 02:24:08;;;;;;;16.48;4.70;;;;;;;28.60;43.50;100272.16;5022786;28;20049;-70
2021/07/30 02:26:36;;;;;;;13.63;4.82;;;;;;;28.59;43.23;100274.00;5031274;28;20049;-69
2021/07/30 02:29:04;;;;;;;14.95;4.32;;;;;;;28.58;43.38;100282.22;5031963;28;20448;-69
2021/07/30 02:31:32;;;;;;;15.40;3.97;;;;;;;28.59;43.47;100270.41;5031569;28;20045;-69
2021/07/30 02:34:01;;;;;;;20.15;4.75;;;;;;;28.59;43.10;100274.00;5028484;28;20040;-70
2021/07/30 02:36:28;;;;;;;15.80;4.35;;;;;;;28.52;43.52;100278.97;5011873;28;20050;-68
2021/07/30 02:38:56;;;;;;;15.88;4.78;;;;;;;28.56;43.12;100271.47;5011926;28;20042;-70
2021/07/30 02:41:24;;;;;;;17.10;5.20;;;;;;;28.54;43.36;100277.03;5019922;28;20498;-68
2021/07/30 02:43:51;;;;;;;11.82;4.55;;;;;;;28.47;44.00;100278.41;5031962;28;20038;-69
2021/07/30 02:46:19;;;;;;;29.35;5.82;;;;;;;28.42;43.68;100283.22;5031292;28;20411;-69
2021/07/30 02:48:47;;;;;;;14.25;4.43;;;;;;;28.41;43.85;100288.78;5028225;28;20062;-69
2021/07/30 02:51:17;;;;;;;17.75;4.25;;;;;;;28.40;43.87;100287.03;5011490;28;20042;-69
2021/07/30 02:53:45;;;;;;;16.35;4.85;;;;;;;28.36;44.42;100278.22;5011844;28;20042;-69
2021/07/30 02:56:12;;;;;;;18.88;4.38;;;;;;;28.36;44.51;100280.94;5010952;28;20049;-70
2021/07/30 02:58:40;;;;;;;12.68;4.70;;;;;;;28.39;44.37;100291.59;5016289;28;20052;-70
2021/07/30 03:01:07;;;;;;;17.70;4.13;;;;;;;28.41;44.28;100292.38;5011081;28;20038;-70
2021/07/30 03:03:34;;;;;;;15.70;5.80;;;;;;;28.40;44.08;100292.47;5011796;28;20053;-69
2021/07/30 03:06:02;;;;;;;17.02;4.45;;;;;;;28.39;44.18;100291.59;5011507;28;20045;-69
2021/07/30 03:08:31;;;;;;;14.98;4.78;;;;;;;28.36;44.15;100289.06;5010840;28;20065;-69
2021/07/30 03:10:58;;;;;;;14.95;4.93;;;;;;;28.35;44.53;100283.78;5015576;28;20045;-68
2021/07/30 03:13:26;;;;;;;16.30;4.35;;;;;;;28.33;44.96;100294.72;5022099;28;20037;-69
2021/07/30 03:15:55;;;;;;;16.98;4.57;;;;;;;28.32;44.40;100292.97;5015424;28;20046;-68
2021/07/30 03:18:22;;;;;;;21.15;4.97;;;;;;;28.30;44.72;100292.19;5025136;28;20037;-70
2021/07/30 03:20:50;;;;;;;19.08;5.03;;;;;;;28.30;45.19;100292.19;5011296;28;20056;-70
2021/07/30 03:23:17;;;;;;;22.30;4.80;;;;;;;28.29;44.93;100290.44;5011133;28;20049;-70
2021/07/30 03:25:46;;;;;;;13.07;4.40;;;;;;;28.23;45.46;100293.56;5011118;28;20399;-70
2021/07/30 03:28:13;;;;;;;19.20;4.68;;;;;;;28.22;45.12;100293.69;5012027;28;20515;-68
2021/07/30 03:30:40;;;;;;;17.15;5.38;;;;;;;28.27;45.49;100299.69;5011035;28;20049;-69
2021/07/30 03:33:07;;;;;;;19.45;5.25;;;;;;;28.25;45.41;100297.06;5013790;28;20038;-69
2021/07/30 03:35:35;;;;;;;12.63;4.22;;;;;;;28.22;45.56;100294.56;5030556;28;20049;-69
2021/07/30 03:38:02;;;;;;;13.05;4.90;;;;;;;28.31;45.90;100293.06;5030536;28;20049;-69
2021/07/30 03:40:29;;;;;;;15.73;5.03;;;;;;;28.36;45.31;100302.66;5030992;28;20041;-68
2021/07/30 03:42:58;;;;;;;18.05;5.28;;;;;;;28.43;45.53;100304.00;5015882;28;20057;-69
2021/07/30 03:45:26;;;;;;;19.70;5.80;;;;;;;28.51;45.16;100300.78;5010165;28;20056;-70
2021/07/30 03:47:54;;;;;;;18.02;6.07;;;;;;;28.56;44.94;100298.63;5011373;28;20050;-70
2021/07/30 03:50:21;;;;;;;16.05;4.40;;;;;;;28.63;44.92;100304.53;5011607;28;20411;-69
2021/07/30 03:52:48;;;;;;;16.95;5.07;;;;;;;28.68;45.22;100294.25;5030651;28;20099;-69
2021/07/30 03:55:15;;;;;;;15.23;4.60;;;;;;;28.73;44.91;100309.25;5030695;28;20045;-69
2021/07/30 03:57:43;;;;;;;14.60;5.13;;;;;;;28.83;45.03;100301.38;5016122;28;20565;-70
2021/07/30 04:00:13;;;;;;;15.70;5.63;;;;;;;28.95;44.96;100303.25;5012495;28;20049;-69
2021/07/30 04:02:40;;;;;;;18.92;5.25;;;;;;;29.03;44.68;100306.34;5030374;28;20486;-68
2021/07/30 04:05:09;;;;;;;20.63;4.78;;;;;;;29.12;44.71;100315.72;5030095;28;20044;-69
2021/07/30 04:07:36;;;;;;;15.80;4.78;;;;;;;29.22;44.06;100314.97;5021230;28;20046;-70
2021/07/30 04:10:04;;;;;;;16.98;5.28;;;;;;;29.32;44.26;100312.50;5015347;28;20045;-70
2021/07/30 04:12:32;;;;;;;15.13;4.82;;;;;;;29.47;44.04;100313.34;5033990;28;20092;-69
2021/07/30 04:14:59;;;;;;;16.65;4.20;;;;;;;29.60;43.93;100319.66;5034567;28;20041;-69
2021/07/30 04:17:27;;;;;;;15.52;4.82;;;;;;;29.75;43.82;100324.00;5034035;28;20060;-70
2021/07/30 04:19:55;;;;;;;19.98;4.82;;;;;;;29.88;43.59;100334.88;5025778;28;20530;-70
2021/07/30 04:22:22;;;;;;;18.23;4.75;;;;;;;30.01;42.93;100331.19;5032181;28;20049;-69
2021/07/30 04:24:49;;;;;;;15.57;4.45;;;;;;;30.15;42.43;100323.88;5033569;28;20118;-69
2021/07/30 04:27:17;;;;;;;14.70;4.47;;;;;;;30.25;42.09;100327.69;5032717;28;20410;-70
2021/07/30 04:29:44;;;;;;;15.15;4.30;;;;;;;30.38;42.47;100334.00;5033570;28;20146;-70
2021/07/30 04:32:12;;;;;;;13.00;4.55;;;;;;;30.51;41.86;100323.97;5029005;28;20045;-70
2021/07/30 04:34:42;;;;;;;16.25;4.93;;;;;;;30.66;41.71;100338.28;5014468;28;20046;-70
2021/07/30 04:37:09;;;;;;;18.05;4.38;;;;;;;30.75;41.23;100334.88;5014050;28;20042;-70
2021/07/30 04:39:37;;;;;;;11.43;4.07;;;;;;;30.88;40.99;100339.28;5014082;28;20046;-69
2021/07/30 04:42:05;;;;;;;18.77;5.13;;;;;;;31.05;40.60;100337.19;5014274;28;20042;-69
2021/07/30 04:44:33;;;;;;;23.70;4.30;;;;;;;31.25;40.53;100333.78;5013231;28;20049;-70
2021/07/30 04:47:01;;;;;;;17.75;4.30;;;;;;;31.48;40.18;100332.00;5027160;28;20033;-70
2021/07/30 04:49:28;;;;;;;12.25;3.55;;;;;;;31.61;39.53;100335.53;5033751;28;20057;-70
2021/07/30 04:51:57;;;;;;;18.40;4.63;;;;;;;31.76;39.59;100337.06;5033450;28;20057;-69
2021/07/30 04:54:24;;;;;;;14.65;4.20;;;;;;;31.87;39.11;100344.41;5033414;28;20404;-69
2021/07/30 04:56:51;;;;;;;18.73;4.25;;;;;;;32.03;39.01;100344.94;5033415;28;20045;-70
2021/07/30 04:59:18;;;;;;;18.38;4.75;;;;;;;32.17;38.78;100336.50;5031262;28;20068;-70
2021/07/30 05:01:46;;;;;;;14.82;4.35;;;;;;;32.32;38.88;100343.44;5024971;28;20041;-70
2021/07/30 05:04:13;;;;;;;15.57;3.95;;;;;;;32.54;38.22;100334.38;5033650;28;20533;-71
2021/07/30 05:06:41;;;;;;;11.43;4.03;;;;;;;32.78;37.61;100328.75;5026581;28;20037;-68
2021/07/30 05:09:09;;;;;;;17.70;4.55;;;;;;;32.99;37.35;100335.16;5032038;28;20495;-69
2021/07/30 05:11:37;;;;;;;16.77;4.45;;;;;;;33.20;37.29;100341.56;5014158;28;20046;-69
2021/07/30 05:14:04;;;;;;;17.35;4.28;;;;;;;33.38;36.85;100336.38;5012872;28;20404;-69
2021/07/30 05:16:31;;;;;;;16.17;4.78;;;;;;;33.56;36.06;100342.97;5013175;28;20415;-69
2021/07/30 05:18:58;;;;;;;13.95;4.07;;;;;;;33.70;35.67;100332.69;5012116;28;20053;-68
2021/07/30 05:21:26;;;;;;;17.60;4.53;;;;;;;33.97;35.64;100347.59;5027958;28;20044;-68
2021/07/30 05:23:53;;;;;;;17.10;4.93;;;;;;;34.15;34.94;100352.44;5032556;28;20052;-69
2021/07/30 05:26:22;;;;;;;15.75;4.20;;;;;;;34.32;34.75;100349.97;5015696;28;20054;-69
2021/07/30 05:28:49;;;;;;;14.82;3.92;;;;;;;34.48;34.72;100351.31;5012337;28;20415;-69
2021/07/30 05:31:18;;;;;;;12.52;3.70;;;;;;;34.69;34.39;100342.00;5021427;28;20046;-70
2021/07/30 05:33:46;;;;;;;17.75;4.20;;;;;;;34.83;34.58;100343.50;5015120;28;20060;-69
2021/07/30 05:36:17;;;;;;;16.58;4.22;;;;;;;35.00;34.10;100351.03;5017976;28;20042;-69
2021/07/30 05:38:45;;;;;;;16.95;4.43;;;;;;;35.13;33.77;100354.38;5031107;28;20038;-69
2021/07/30 05:41:12;;;;;;;21.27;4.40;;;;;;;35.28;33.64;100351.22;5017826;28;20070;-69
2021/07/30 05:43:43;;;;;;;16.00;3.88;;;;;;;35.38;33.37;100361.19;5011808;28;20042;-70
2021/07/30 05:46:13;;;;;;;21.83;5.78;;;;;;;35.49;32.92;100354.69;5012508;28;20037;-69
2021/07/30 05:48:40;;;;;;;14.48;4.00;;;;;;;35.64;32.78;100371.59;5024637;28;20124;-69
2021/07/30 05:51:07;;;;;;;19.13;4.18;;;;;;;35.77;32.43;100366.69;5029940;28;20510;-70
2021/07/30 05:53:34;;;;;;;15.27;4.28;;;;;;;35.94;32.33;100375.03;5011759;28;20053;-69
2021/07/30 05:56:02;;;;;;;17.45;5.07;;;;;;;36.10;31.84;100360.69;5012341;28;20068;-69
2021/07/30 05:58:30;;;;;;;12.93;5.38;;;;;;;36.16;31.66;100361.97;5012558;28;20038;-69
2021/07/30 06:00:59;;;;;;;13.40;4.95;;;;;;;36.30;31.44;100356.00;5012372;28;20049;-68
2021/07/30 06:03:27;;;;;;;17.90;4.43;;;;;;;36.39;31.33;100349.59;5019569;28;20056;-69
2021/07/30 06:05:54;;;;;;;16.52;4.50;;;;;;;36.41;31.24;100363.19;5030615;28;20495;-69
2021/07/30 06:08:21;;;;;;;13.00;4.30;;;;;;;36.38;31.22;100364.34;5032093;28;20049;-69
2021/07/30 06:10:49;;;;;;;17.02;4.25;;;;;;;36.52;31.15;100371.25;5031924;28;20442;-70
2021/07/30 06:13:16;;;;;;;14.75;3.97;;;;;;;36.78;30.90;100366.78;5031762;28;20056;-70
2021/07/30 06:15:43;;;;;;;15.23;4.25;;;;;;;36.91;31.03;100371.91;5024672;28;20045;-70
2021/07/30 06:18:12;;;;;;;15.50;3.70;;;;;;;37.00;30.49;100373.75;5020155;28;20060;-69
2021/07/30 06:20:39;;;;;;;19.33;4.13;;;;;;;36.95;30.52;100373.34;5025186;28;20042;-68
2021/07/30 06:23:06;;;;;;;14.35;4.50;;;;;;;37.01;30.78;100370.84;5029938;28;20419;-69
2021/07/30 06:25:33;;;;;;;14.90;4.05;;;;;;;37.18;30.94;100374.66;5030124;28;20411;-69
2021/07/30 06:28:01;;;;;;;13.52;4.45;;;;;;;37.16;30.79;100370.31;5030417;28;20499;-69
2021/07/30 06:30:29;;;;;;;21.95;4.65;;;;;;;37.24;30.98;100373.16;5026308;28;20049;-69
2021/07/30 06:32:56;;;;;;;14.23;4.35;;;;;;;37.38;30.96;100367.97;5025774;28;20049;-68
2021/07/30 06:35:26;;;;;;;12.30;4.57;;;;;;;37.47;30.78;100378.03;5026087;28;20046;-69
2021/07/30 06:37:54;;;;;;;12.13;4.00;;;;;;;37.58;30.71;100378.84;5010941;28;20398;-69
2021/07/30 06:40:21;;;;;;;18.52;4.28;;;;;;;37.58;30.66;100371.44;5026012;28;20076;-68
2021/07/30 06:42:48;;;;;;;17.65;4.57;;;;;;;37.56;30.38;100369.81;5011735;28;20052;-68
2021/07/30 06:45:15;;;;;;;14.55;3.97;;;;;;;37.58;30.38;100381.59;5027345;28;20049;-68
2021/07/30 06:47:43;;;;;;;14.27;4.85;;;;;;;37.70;30.05;100377.56;5025934;28;20061;-68
2021/07/30 06:50:11;;;;;;;15.07;4.07;;;;;;;37.83;29.94;100383.53;5025579;28;20045;-70
2021/07/30 06:52:39;;;;;;;10.68;3.88;;;;;;;38.01;30.05;100383.50;5025671;28;20509;-69
2021/07/30 06:55:07;;;;;;;13.70;4.40;;;;;;;38.18;29.63;100386.22;5025885;28;20045;-69
2021/07/30 06:57:35;;;;;;;10.93;4.47;;;;;;;38.18;29.49;100372.44;5024128;28;20041;-68
2021/07/30 07:00:02;;;;;;;12.48;4.25;;;;;;;38.20;29.56;100378.63;5027582;28;20495;-68
2021/07/30 07:02:29;;;;;;;11.75;4.05;;;;;;;38.21;29.36;100376.72;5025321;28;20046;-69
2021/07/30 07:04:56;;;;;;;16.23;5.30;;;;;;;38.11;29.70;100382.38;5025800;28;20046;-68
2021/07/30 07:07:24;;;;;;;15.38;4.80;;;;;;;38.13;29.82;100387.75;5029144;28;20046;-70
2021/07/30 07:09:53;;;;;;;10.98;4.32;;;;;;;38.17;29.88;100384.50;5028321;28;20049;-70
2021/07/30 07:12:20;;;;;;;16.83;4.32;;;;;;;38.19;29.40;100385.19;5026007;28;20053;-70
2021/07/30 07:14:48;;;;;;;14.73;4.20;;;;;;;38.25;28.97;100387.31;5025977;28;20046;-70
2021/07/30 07:17:15;;;;;;;15.68;4.30;;;;;;;38.34;29.25;100390.94;5025532;28;20049;-70
2021/07/30 07:19:43;;;;;;;19.17;4.65;;;;;;;38.37;29.22;100393.41;5028053;28;20095;-71
2021/07/30 07:22:11;;;;;;;14.25;4.30;;;;;;;38.36;29.08;100386.13;5025379;28;20095;-70
2021/07/30 07:24:39;;;;;;;14.93;5.15;;;;;;;38.36;29.32;100390.78;5024843;28;20494;-69
2021/07/30 07:27:08;;;;;;;16.88;4.28;;;;;;;38.48;28.76;100390.38;5028803;28;20045;-71
2021/07/30 07:29:35;;;;;;;12.02;4.18;;;;;;;38.53;28.55;100396.25;5029200;28;20558;-69
2021/07/30 07:32:03;;;;;;;21.73;4.63;;;;;;;38.69;28.84;100401.00;5029906;28;20046;-71
2021/07/30 07:34:30;;;;;;;17.73;4.20;;;;;;;38.83;28.40;100394.84;5028455;28;20049;-71
2021/07/30 07:36:58;;;;;;;14.52;5.03;;;;;;;38.92;28.03;100391.13;5021088;28;20502;-71
2021/07/30 07:39:25;;;;;;;13.95;4.85;;;;;;;39.03;27.77;100395.44;5015058;28;20053;-71
2021/07/30 07:41:53;;;;;;;11.35;4.25;;;;;;;39.11;27.44;100401.00;5009612;28;20515;-70
2021/07/30 07:44:21;;;;;;;12.85;4.40;;;;;;;39.12;27.57;100399.97;5021604;28;20041;-70
2021/07/30 07:46:49;;;;;;;14.85;4.68;;;;;;;39.12;27.47;100397.22;5025983;28;20056;-70
2021/07/30 07:49:16;;;;;;;14.15;4.30;;;;;;;39.19;27.58;100406.53;5027440;28;20102;-71
2021/07/30 07:51:43;;;;;;;13.73;4.45;;;;;;;39.23;27.47;100407.94;5028864;28;20525;-71
2021/07/30 07:54:11;;;;;;;17.48;4.13;;;;;;;39.30;27.45;100405.34;5030563;28;20502;-70
2021/07/30 07:56:38;;;;;;;16.40;3.83;;;;;;;39.44;27.25;100411.13;5029931;28;20056;-71
2021/07/30 07:59:05;;;;;;;15.32;5.18;;;;;;;39.59;26.76;100408.50;5029923;28;20048;-71
2021/07/30 08:01:34;;;;;;;13.85;4.50;;;;;;;39.77;26.66;100405.59;5014913;28;20049;-70
2021/07/30 08:04:02;;;;;;;13.07;4.00;;;;;;;39.80;26.72;100402.50;5010150;28;20042;-70
2021/07/30 08:06:29;;;;;;;16.75;4.65;;;;;;;39.82;26.63;100400.44;5010578;28;20042;-70
2021/07/30 08:08:57;;;;;;;17.13;4.85;;;;;;;39.78;26.67;100396.25;5010684;28;20037;-70
2021/07/30 08:11:24;;;;;;;11.68;4.20;;;;;;;39.69;26.51;100400.06;5010945;28;20053;-70
2021/07/30 08:13:51;;;;;;;16.75;4.72;;;;;;;39.57;26.30;100387.63;5010562;28;20042;-71
2021/07/30 08:16:24;;;;;;;13.05;3.78;;;;;;;39.46;26.41;100402.63;5024152;28;20041;-71
2021/07/30 08:18:53;;;;;;;;;;;;;;;39.21;26.66;100398.06;5026964;28;20426;-70
2021/07/30 08:21:21;;;;;;;15.45;4.60;;;;;;;39.26;26.64;100395.66;5029415;28;19921;-70
2021/07/30 08:23:48;;;;;;;19.50;4.72;;;;;;;39.21;26.30;100398.94;5029725;28;20041;-71
2021/07/30 08:26:15;;;;;;;13.48;4.40;;;;;;;39.31;26.61;100393.28;5015553;28;20042;-70
2021/07/30 08:28:43;;;;;;;13.45;3.60;;;;;;;39.23;26.70;100396.88;5010472;28;20042;-70
2021/07/30 08:31:10;;;;;;;16.52;4.65;;;;;;;39.19;26.98;100392.72;5009452;28;20046;-70
2021/07/30 08:33:38;;;;;;;14.23;4.25;;;;;;;39.33;27.16;100403.09;5010453;28;20050;-71
2021/07/30 08:36:09;;;;;;;17.80;5.72;;;;;;;39.36;26.73;100391.75;5010190;28;20062;-70
2021/07/30 08:38:37;;;;;;;16.42;4.82;;;;;;;39.21;26.81;100392.56;5010240;28;20452;-71
2021/07/30 08:41:04;;;;;;;14.30;5.05;;;;;;;39.40;26.57;100387.59;5022092;28;20049;-70
2021/07/30 08:43:31;;;;;;;20.45;4.55;;;;;;;39.61;26.76;100384.34;5010914;28;20042;-71
2021/07/30 08:45:58;;;;;;;15.55;5.28;;;;;;;39.74;26.33;100395.75;5010162;28;20038;-69
2021/07/30 08:48:26;;;;;;;15.68;4.25;;;;;;;39.79;26.45;100395.22;5011048;28;20050;-71
2021/07/30 08:50:55;;;;;;;15.40;4.47;;;;;;;39.96;26.05;100393.34;5010182;28;20117;-71
2021/07/30 08:53:26;;;;;;;13.82;4.22;;;;;;;40.03;25.73;100395.25;5027223;28;20053;-71
2021/07/30 08:55:54;;;;;;;15.02;5.32;;;;;;;39.99;25.93;100404.03;5033444;28;20045;-71
2021/07/30 08:58:22;;;;;;;15.13;5.38;;;;;;;39.93;26.04;100394.53;5033302;28;20049;-71
2021/07/30 09:00:50;;;;;;;22.30;5.05;;;;;;;39.96;25.89;100398.88;5033343;28;20550;-71
2021/07/30 09:03:17;;;;;;;14.23;3.88;;;;;;;39.85;25.76;100397.31;5014043;28;20440;-71
2021/07/30 09:05:45;;;;;;;19.70;4.85;;;;;;;39.92;25.66;100397.47;5013000;28;20041;-71
2021/07/30 09:08:25;;;;;;;13.55;4.38;;;;;;;40.00;25.49;100387.28;5014012;28;20380;-71
2021/07/30 09:10:52;;;;;;;18.30;4.63;;;;;;;39.90;25.54;100392.16;5013494;28;20046;-71
2021/07/30 09:13:27;;;;;;;16.75;3.90;;;;;;;39.91;25.76;100402.13;5012622;28;20503;-71
2021/07/30 09:16:03;;;;;;;18.88;5.68;;;;;;;39.92;25.59;100381.75;5017655;28;20041;-70
2021/07/30 09:18:33;;;;;;;14.80;4.40;;;;;;;39.92;24.84;100383.66;5033017;28;20053;-70
2021/07/30 09:21:35;;;;;;;16.02;4.63;;;;;;;40.07;25.08;100396.59;5027113;28;20038;-70
2021/07/30 09:24:06;;;;;;;15.20;4.38;;;;;;;40.16;24.82;100386.38;5012091;28;20042;-71
2021/07/30 09:26:44;;;;;;;15.40;4.35;;;;;;;40.16;25.39;100383.63;5022579;28;20415;-71
2021/07/30 09:29:14;;;;;;;13.13;3.90;;;;;;;40.27;25.20;100382.41;5032762;28;20088;-71
2021/07/30 09:31:47;;;;;;;14.93;5.00;;;;;;;40.27;25.18;100376.88;5032748;28;20057;-70
2021/07/30 09:34:21;;;;;;;12.70;4.15;;;;;;;40.26;25.56;100377.91;5031864;28;20406;-71
2021/07/30 09:36:49;;;;;;;;;;;;;;;40.17;25.71;100388.97;5029426;28;20041;-70
2021/07/30 09:39:21;;;;;;;14.80;4.55;;;;;;;39.97;25.90;100376.56;5031649;28;19936;-70
2021/07/30 09:42:04;;;;;;;16.80;4.40;;;;;;;39.72;26.23;100374.81;5032291;28;20096;-70
2021/07/30 09:44:32;;;;;;;16.20;3.90;;;;;;;39.63;25.85;100368.44;5031795;28;20283;-69
2021/07/30 09:47:11;;;;;;;11.60;3.92;;;;;;;39.48;25.65;100367.41;5030601;28;20045;-70
2021/07/30 09:49:49;;;;;;;16.88;4.18;;;;;;;39.58;25.82;100372.78;5029027;28;20056;-70
2021/07/30 09:52:19;;;;;;;16.25;4.32;;;;;;;39.40;25.42;100371.03;5012458;28;20042;-71
2021/07/30 09:54:49;;;;;;;15.10;3.78;;;;;;;39.27;25.74;100359.56;5011874;28;20486;-71
2021/07/30 09:57:19;;;;;;;13.00;4.88;;;;;;;39.22;26.42;100370.28;5012392;28;20042;-71
2021/07/30 09:59:47;;;;;;;14.43;4.82;;;;;;;39.24;26.38;100361.84;5031768;28;20053;-70
2021/07/30 10:02:19;;;;;;;18.25;4.78;;;;;;;39.24;26.50;100359.94;5028385;28;20050;-69
2021/07/30 10:04:49;;;;;;;9.77;3.93;;;;;;;39.25;26.50;100369.97;5030982;28;20522;-69
2021/07/30 10:07:18;;;;;;;17.50;4.50;;;;;;;39.37;26.29;100362.22;5030719;28;20046;-69
2021/07/30 10:09:52;;;;;;;19.65;4.97;;;;;;;39.43;26.29;100359.63;5031594;28;20052;-69
2021/07/30 10:12:20;;;;;;;18.48;4.43;;;;;;;39.31;26.34;100355.44;5030296;28;20422;-69
2021/07/30 10:14:49;;;;;;;12.95;4.07;;;;;;;39.21;26.30;100356.63;5031421;28;20049;-69
2021/07/30 10:17:17;;;;;;;12.88;3.65;;;;;;;39.19;26.17;100359.56;5030672;28;20037;-69
2021/07/30 10:19:47;;;;;;;14.50;4.10;;;;;;;39.25;26.28;100350.63;5031568;28;20064;-69
2021/07/30 10:22:16;;;;;;;16.13;4.50;;;;;;;38.99;26.14;100352.66;5030929;28;20117;-70
2021/07/30 10:24:52;;;;;;;16.85;4.82;;;;;;;38.89;26.11;100347.22;5021517;28;20049;-71
2021/07/30 10:27:21;;;;;;;20.15;4.65;;;;;;;38.83;26.16;100338.75;5029572;28;20057;-69
2021/07/30 10:30:13;;;;;;;13.15;4.45;;;;;;;38.60;26.69;100333.84;5030541;28;20207;-70
2021/07/30 10:32:51;;;;;;;16.75;5.82;;;;;;;38.38;27.03;100330.81;5031064;28;20380;-70
2021/07/30 10:35:20;;;;;;;14.32;4.30;;;;;;;38.35;27.13;100323.72;5029657;28;20060;-70
2021/07/30 10:37:48;;;;;;;14.85;4.78;;;;;;;38.51;27.10;100317.44;5030339;28;20050;-70
2021/07/30 10:40:21;;;;;;;17.88;4.18;;;;;;;38.55;26.95;100321.56;5028166;28;20060;-70
2021/07/30 10:43:05;;;;;;;16.20;4.70;;;;;;;38.57;27.09;100323.16;5030734;28;20045;-69
2021/07/30 10:45:33;;;;;;;;;;;;;;;38.59;26.88;100320.22;5029531;28;20049;-70
2021/07/30 10:48:33;;;;;;;13.90;4.10;;;;;;;38.50;26.78;100319.31;5030861;28;19921;-69
2021/07/30 10:51:04;;;;;;;14.75;3.90;;;;;;;38.47;27.08;100321.50;5029203;28;20380;-69
2021/07/30 10:53:51;;;;;;;18.17;4.03;;;;;;;38.59;26.95;100323.00;5029789;28;20037;-70
2021/07/30 10:56:52;;;;;;;12.40;3.83;;;;;;;38.69;26.89;100320.94;5026718;28;20058;-69
2021/07/30 10:59:21;;;;;;;14.95;4.70;;;;;;;38.76;26.74;100323.88;5010549;28;20388;-70
2021/07/30 11:01:59;;;;;;;18.58;5.32;;;;;;;38.86;26.60;100321.84;5029946;28;20501;-69
2021/07/30 11:04:27;;;;;;;12.73;4.85;;;;;;;38.75;26.51;100300.94;5030607;28;20068;-69
2021/07/30 11:06:56;;;;;;;15.88;5.32;;;;;;;38.79;26.22;100309.75;5021636;28;20049;-68
2021/07/30 11:09:38;;;;;;;14.43;4.18;;;;;;;38.88;25.80;100301.31;5029868;28;20395;-69
2021/07/30 11:12:13;;;;;;;11.95;4.25;;;;;;;39.06;25.67;100301.19;5029915;28;20390;-68
2021/07/30 11:14:43;;;;;;;16.15;4.75;;;;;;;39.18;25.86;100299.84;5030369;28;20052;-69
2021/07/30 11:17:11;;;;;;;11.30;4.97;;;;;;;39.31;25.70;100302.09;5023343;28;20046;-70
2021/07/30 11:19:40;;;;;;;19.55;5.82;;;;;;;39.30;25.73;100303.97;5028309;28;20038;-69
2021/07/30 11:22:09;;;;;;;12.88;4.03;;;;;;;39.41;25.78;100305.56;5028507;28;20049;-70
2021/07/30 11:24:41;;;;;;;10.23;4.00;;;;;;;39.51;25.69;100305.41;5029962;28;20478;-72